Terminal Aerodrome Forecast
Issued by NWS

Home | Current Version | Previous Version | Text Only | Print | Product List | Glossary On
Versions: 1 2 3 4 5 6 7 8 9 10 11 12 13 14
000
FTUS45 KABQ 130500
TAFGUP
TAF
KGUP 130531Z 1306/1406 07008KT P6SM VCSH BKN100
     FM130800 VRB03KT P6SM SCT120 BKN200
     FM131900 03010KT P6SM VCSH SCT090 BKN120
     FM140400 11008KT P6SM SCT100 BKN150=

USA.gov is the U.S. government's official web portal to all federal, state and local government web resources and services.